Time;durP1;ratioP1;P1;durP2;ratioP2;P2;SDS_P1;SDS_P2;PMS_P1;PMS_P2;Temp;Humidity;BMP_temperature;BMP_pressure;BME280_temperature;BME280_humidity;BME280_pressure;Samples;Min_cycle;Max_cycle;Signal;HPM_P1;HPM_P2
2021/03/13 00:00:17;;;;;;;2.92;0.88;;;11.10;56.60;;;;;;2341124;53;20960;-66
2021/03/13 00:02:44;;;;;;;4.87;0.90;;;11.10;56.70;;;;;;2581145;52;21043;-66
2021/03/13 00:05:21;;;;;;;5.07;0.90;;;11.10;56.60;;;;;;2344628;53;21455;-66
2021/03/13 00:07:47;;;;;;;5.15;1.15;;;11.10;56.60;;;;;;2343732;53;21071;-66
2021/03/13 00:10:14;;;;;;;4.68;0.90;;;11.10;56.70;;;;;;2586013;52;21409;-66
2021/03/13 00:12:40;;;;;;;4.20;1.02;;;11.10;56.80;;;;;;2341238;54;20956;-66
2021/03/13 00:15:07;;;;;;;3.87;1.00;;;11.10;56.90;;;;;;2587214;53;20915;-66
2021/03/13 00:17:33;;;;;;;4.70;0.98;;;11.10;56.90;;;;;;2586368;52;20935;-67
2021/03/13 00:20:03;;;;;;;6.22;1.00;;;11.10;56.70;;;;;;2587555;52;21092;-67
2021/03/13 00:22:29;;;;;;;3.50;1.00;;;11.10;56.80;;;;;;2341159;54;20956;-66
2021/03/13 00:24:56;;;;;;;4.32;0.80;;;11.10;56.70;;;;;;2341065;54;20969;-66
2021/03/13 00:27:22;;;;;;;4.03;0.82;;;11.20;56.80;;;;;;2345986;54;20984;-67
2021/03/13 00:29:48;;;;;;;4.07;1.00;;;11.20;56.70;;;;;;2340557;53;21004;-66
2021/03/13 00:32:15;;;;;;;4.62;0.90;;;11.20;56.70;;;;;;2341721;54;20926;-66
2021/03/13 00:34:42;;;;;;;2.35;0.82;;;11.20;56.70;;;;;;2588750;52;20932;-67
2021/03/13 00:37:09;;;;;;;4.10;0.80;;;11.20;56.70;;;;;;2558108;53;20945;-66
2021/03/13 00:39:40;;;;;;;3.72;0.90;;;11.30;56.70;;;;;;2339986;54;20992;-67
2021/03/13 00:42:07;;;;;;;3.62;0.95;;;11.30;56.70;;;;;;2339202;54;21416;-66
2021/03/13 00:44:33;;;;;;;3.10;0.75;;;11.30;56.70;;;;;;2346408;53;20956;-65
2021/03/13 00:47:00;;;;;;;3.42;1.00;;;11.30;56.60;;;;;;2577099;52;20948;-66
2021/03/13 00:49:26;;;;;;;4.12;0.90;;;11.30;56.70;;;;;;2585178;52;20960;-66
2021/03/13 00:51:52;;;;;;;4.65;1.00;;;11.30;56.60;;;;;;2339250;54;21457;-66
2021/03/13 00:54:19;;;;;;;4.32;0.75;;;11.30;56.50;;;;;;2338656;54;21409;-66
2021/03/13 00:56:45;;;;;;;4.25;0.73;;;11.30;56.60;;;;;;2339106;53;21416;-66
2021/03/13 00:59:11;;;;;;;3.40;0.70;;;11.40;56.60;;;;;;2339064;54;20941;-66
2021/03/13 01:01:38;;;;;;;7.82;1.15;;;11.40;56.50;;;;;;2338878;53;20960;-66
2021/03/13 01:04:04;;;;;;;3.22;0.93;;;11.40;56.50;;;;;;2584203;52;21460;-67
2021/03/13 01:06:31;;;;;;;4.82;0.98;;;11.40;56.60;;;;;;2337659;53;21426;-66
2021/03/13 01:08:57;;;;;;;4.75;1.10;;;11.30;56.30;;;;;;2341147;53;20971;-66
2021/03/13 01:11:25;;;;;;;5.28;0.90;;;11.40;56.50;;;;;;2343284;53;21515;-66
2021/03/13 01:13:51;;;;;;;4.65;0.98;;;11.30;56.40;;;;;;2585561;52;20949;-67
2021/03/13 01:16:18;;;;;;;4.75;1.17;;;11.30;56.40;;;;;;2344329;53;20971;-66
2021/03/13 01:18:46;;;;;;;4.97;0.93;;;11.30;56.30;;;;;;2586630;52;20998;-66
2021/03/13 01:21:12;;;;;;;5.47;0.90;;;11.30;56.40;;;;;;2339567;53;20983;-66
2021/03/13 01:23:38;;;;;;;5.07;1.58;;;11.30;56.40;;;;;;2587858;52;21007;-66
2021/03/13 01:26:05;;;;;;;3.53;1.15;;;11.20;56.40;;;;;;2350218;53;21084;-66
2021/03/13 01:28:31;;;;;;;5.60;1.10;;;11.30;56.40;;;;;;2338455;53;21607;-67
2021/03/13 01:30:58;;;;;;;7.20;1.20;;;11.30;56.50;;;;;;2338719;53;20971;-66
2021/03/13 01:33:25;;;;;;;3.87;0.90;;;11.30;56.60;;;;;;2587292;52;21586;-66
2021/03/13 01:35:51;;;;;;;5.20;0.98;;;11.30;56.80;;;;;;2334066;53;20951;-66
2021/03/13 01:38:24;;;;;;;4.45;0.90;;;11.30;56.80;;;;;;2585933;52;20943;-66
2021/03/13 01:40:50;;;;;;;3.12;0.80;;;11.30;56.70;;;;;;2344633;53;20915;-66
2021/03/13 01:43:16;;;;;;;4.72;0.90;;;11.30;56.80;;;;;;2340783;53;21036;-66
2021/03/13 01:45:44;;;;;;;5.65;1.37;;;11.30;56.90;;;;;;2588387;52;21596;-66
2021/03/13 01:48:11;;;;;;;3.72;0.80;;;11.30;56.70;;;;;;2587204;52;20956;-66
2021/03/13 01:50:38;;;;;;;3.90;0.90;;;11.30;56.80;;;;;;2341328;54;20956;-66
2021/03/13 01:53:04;;;;;;;4.80;1.02;;;11.30;56.90;;;;;;2588152;52;21464;-66
2021/03/13 01:55:31;;;;;;;6.32;1.83;;;11.30;56.90;;;;;;2341316;53;21382;-66
2021/03/13 01:57:57;;;;;;;4.85;1.10;;;11.30;56.70;;;;;;2588098;52;20941;-66
2021/03/13 02:00:25;;;;;;;4.47;0.85;;;11.30;56.70;;;;;;2341895;54;20996;-66
2021/03/13 02:02:51;;;;;;;3.97;0.90;;;11.30;56.60;;;;;;2341236;54;20929;-66
2021/03/13 02:05:54;;;;;;;6.55;1.33;;;11.30;56.70;;;;;;2586868;52;20976;-66
2021/03/13 02:08:58;;;;;;;3.22;0.77;;;11.30;56.60;;;;;;2588071;52;20993;-66
2021/03/13 02:14:30;;;;;;;4.37;0.93;;;11.30;56.70;;;;;;2326018;54;21880;-66
2021/03/13 02:17:02;;;;;;;4.57;0.85;;;11.30;56.70;;;;;;2588016;52;21048;-65
2021/03/13 02:21:09;;;;;;;4.35;1.42;;;11.20;56.60;;;;;;2345087;54;21033;-66
2021/03/13 02:23:43;;;;;;;4.53;1.20;;;11.20;56.50;;;;;;2588408;52;21013;-66
2021/03/13 02:29:30;;;;;;;4.10;0.80;;;11.20;56.80;;;;;;2347321;53;20923;-66
2021/03/13 02:31:58;;;;;;;5.75;0.80;;;11.20;56.60;;;;;;2560085;53;21475;-66
2021/03/13 02:34:27;;;;;;;5.10;0.90;;;11.20;56.70;;;;;;2341126;53;20976;-66
2021/03/13 02:37:31;;;;;;;2.62;0.75;;;11.20;56.80;;;;;;2341352;54;21062;-66
2021/03/13 02:39:58;;;;;;;4.32;1.20;;;11.20;56.90;;;;;;2559701;53;21064;-67
2021/03/13 02:42:25;;;;;;;5.37;0.90;;;11.20;57.00;;;;;;2341226;54;20964;-66
2021/03/13 02:44:52;;;;;;;7.45;1.10;;;11.20;56.80;;;;;;2344118;54;20896;-67
2021/03/13 02:47:18;;;;;;;2.15;0.73;;;11.20;56.70;;;;;;2577551;52;20963;-65
2021/03/13 02:49:47;;;;;;;3.72;1.00;;;11.20;56.90;;;;;;2326581;53;20946;-66
2021/03/13 02:52:13;;;;;;;4.43;0.85;;;11.20;56.90;;;;;;2345056;53;20983;-66
2021/03/13 02:54:43;;;;;;;2.03;0.82;;;11.30;57.10;;;;;;2347811;53;20923;-66
2021/03/13 02:57:10;;;;;;;3.45;0.70;;;11.30;57.00;;;;;;2328452;53;20939;-66
2021/03/13 02:59:36;;;;;;;6.07;1.10;;;11.30;56.90;;;;;;2341255;53;20960;-66
2021/03/13 03:02:03;;;;;;;5.37;1.10;;;11.30;56.70;;;;;;2341165;54;20932;-65
2021/03/13 03:04:30;;;;;;;3.20;0.73;;;11.30;56.80;;;;;;2322459;54;20959;-66
2021/03/13 03:06:58;;;;;;;5.07;0.93;;;11.30;56.90;;;;;;2344866;54;20975;-66
2021/03/13 03:09:26;;;;;;;4.40;0.90;;;11.30;56.60;;;;;;2335428;53;20990;-67
2021/03/13 03:11:52;;;;;;;5.75;1.00;;;11.30;56.70;;;;;;2328130;53;21845;-66
2021/03/13 03:14:18;;;;;;;7.30;1.15;;;11.30;56.50;;;;;;2345091;53;21557;-66
2021/03/13 03:16:47;;;;;;;4.50;1.05;;;11.30;56.70;;;;;;2341175;53;20948;-66
2021/03/13 03:19:14;;;;;;;3.60;1.00;;;11.30;56.40;;;;;;2587273;52;20937;-66
2021/03/13 03:21:40;;;;;;;3.70;0.90;;;11.30;56.50;;;;;;2345538;53;20934;-66
2021/03/13 03:24:07;;;;;;;2.78;0.80;;;11.30;56.60;;;;;;2340990;53;21256;-66
2021/03/13 03:26:35;;;;;;;3.85;0.80;;;11.30;56.50;;;;;;2341836;53;21020;-66
2021/03/13 03:29:01;;;;;;;3.67;0.85;;;11.30;56.50;;;;;;2329431;54;21001;-66
2021/03/13 03:31:28;;;;;;;6.03;1.10;;;11.30;56.50;;;;;;2330345;53;20913;-66
2021/03/13 03:33:54;;;;;;;3.70;0.90;;;11.30;56.20;;;;;;2342257;54;20979;-65
2021/03/13 03:36:21;;;;;;;6.28;1.10;;;11.30;56.50;;;;;;2344567;53;21017;-66
2021/03/13 03:38:47;;;;;;;6.18;1.20;;;11.30;56.50;;;;;;2587687;52;21691;-66
2021/03/13 03:41:14;;;;;;;3.40;0.90;;;11.30;56.60;;;;;;2344439;53;21931;-66
2021/03/13 03:43:51;;;;;;;5.87;0.90;;;11.30;56.70;;;;;;2328856;53;20968;-66
2021/03/13 03:46:18;;;;;;;3.00;0.80;;;11.30;56.80;;;;;;2587555;53;21051;-66
2021/03/13 03:48:44;;;;;;;4.32;0.80;;;11.30;56.80;;;;;;2342907;53;20937;-66
2021/03/13 03:51:14;;;;;;;4.07;1.10;;;11.30;56.80;;;;;;2338691;53;21432;-66
2021/03/13 03:53:42;;;;;;;6.65;1.05;;;11.30;56.80;;;;;;2585138;52;20952;-66
2021/03/13 03:56:09;;;;;;;4.87;1.00;;;11.30;56.70;;;;;;2342923;53;20919;-66
2021/03/13 03:58:41;;;;;;;3.08;0.80;;;11.20;56.70;;;;;;2585015;52;20925;-67
2021/03/13 04:01:08;;;;;;;5.18;1.10;;;11.20;56.90;;;;;;2584777;53;21591;-67
2021/03/13 04:03:37;;;;;;;4.57;0.90;;;11.20;56.80;;;;;;2339952;54;20944;-66
2021/03/13 04:06:07;;;;;;;3.00;0.85;;;11.20;56.90;;;;;;2320757;54;21888;-66
2021/03/13 04:08:33;;;;;;;4.95;0.93;;;11.20;56.90;;;;;;2320094;55;21735;-66
2021/03/13 04:10:59;;;;;;;6.15;1.05;;;11.30;56.70;;;;;;2339692;54;20907;-66
2021/03/13 04:13:26;;;;;;;3.55;0.80;;;11.20;56.80;;;;;;2342243;53;21004;-66
2021/03/13 04:15:52;;;;;;;3.92;0.95;;;11.20;56.80;;;;;;2583209;52;20952;-66
2021/03/13 04:18:19;;;;;;;3.70;0.90;;;11.20;57.00;;;;;;2342473;53;20984;-66
2021/03/13 04:20:47;;;;;;;5.07;0.90;;;11.20;56.70;;;;;;2587145;52;20972;-66
2021/03/13 04:23:13;;;;;;;5.15;0.75;;;11.20;56.90;;;;;;2341246;54;21442;-66
2021/03/13 04:25:39;;;;;;;4.70;1.08;;;11.20;56.90;;;;;;2341036;54;20988;-67
2021/03/13 04:28:06;;;;;;;5.97;0.98;;;11.20;57.10;;;;;;2587638;53;20937;-66
2021/03/13 04:30:59;;;;;;;6.12;0.90;;;11.20;56.70;;;;;;2588715;52;20936;-66
2021/03/13 04:33:28;;;;;;;7.43;1.08;;;11.20;56.90;;;;;;2587482;52;20964;-66
2021/03/13 04:35:55;;;;;;;5.37;0.90;;;11.20;56.80;;;;;;2341226;54;21008;-66
2021/03/13 04:38:21;;;;;;;4.37;0.90;;;11.20;56.90;;;;;;2338924;54;20948;-67
2021/03/13 04:40:49;;;;;;;3.60;0.90;;;11.20;57.20;;;;;;2338790;54;20956;-66
2021/03/13 04:43:24;;;;;;;3.75;0.73;;;11.20;56.90;;;;;;2339568;54;20948;-67
2021/03/13 04:45:50;;;;;;;7.30;1.05;;;11.20;56.90;;;;;;2343169;54;22150;-67
2021/03/13 04:48:18;;;;;;;4.00;1.10;;;11.20;56.70;;;;;;2335817;53;21565;-66
2021/03/13 04:51:04;;;;;;;3.97;0.85;;;11.20;56.90;;;;;;2323186;53;20952;-67
2021/03/13 04:53:43;;;;;;;4.82;0.85;;;11.30;56.90;;;;;;2585855;52;20937;-66
2021/03/13 04:56:11;;;;;;;5.32;1.10;;;11.30;56.70;;;;;;2334188;54;21023;-66
2021/03/13 04:58:38;;;;;;;3.92;0.80;;;11.30;56.70;;;;;;2322541;54;20960;-67
2021/03/13 05:01:04;;;;;;;2.83;0.62;;;11.30;56.40;;;;;;2343586;53;20931;-65
2021/03/13 05:03:36;;;;;;;5.28;0.98;;;11.30;56.60;;;;;;2336666;53;21271;-67
2021/03/13 05:06:02;;;;;;;5.45;0.80;;;11.30;56.30;;;;;;2339863;54;21026;-67
2021/03/13 05:08:28;;;;;;;5.07;1.00;;;11.30;56.30;;;;;;2587891;52;21461;-66
2021/03/13 05:10:56;;;;;;;3.87;0.70;;;11.40;56.10;;;;;;2336900;54;21657;-66
2021/03/13 05:13:22;;;;;;;4.60;0.90;;;11.40;56.30;;;;;;2341150;54;20955;-67
2021/03/13 05:15:49;;;;;;;3.33;0.90;;;11.40;55.90;;;;;;2341656;54;20952;-66
2021/03/13 05:18:16;;;;;;;4.25;0.88;;;11.40;55.80;;;;;;2341724;54;21007;-67
2021/03/13 05:20:42;;;;;;;5.10;0.80;;;11.40;55.50;;;;;;2342172;54;20925;-66
2021/03/13 05:23:09;;;;;;;4.72;0.93;;;11.40;55.70;;;;;;2344631;53;20939;-66
2021/03/13 05:25:36;;;;;;;4.65;1.20;;;11.40;55.60;;;;;;2344918;53;21021;-67
2021/03/13 05:28:03;;;;;;;5.97;1.20;;;11.40;55.30;;;;;;2341132;53;21016;-66
2021/03/13 05:30:29;;;;;;;5.30;0.80;;;11.50;55.30;;;;;;2333031;54;21008;-66
2021/03/13 05:32:55;;;;;;;5.78;1.08;;;11.50;55.50;;;;;;2341635;54;20949;-66
2021/03/13 05:35:22;;;;;;;4.97;0.80;;;11.50;55.30;;;;;;2588574;52;20947;-66
2021/03/13 05:37:48;;;;;;;5.00;1.08;;;11.50;55.40;;;;;;2344715;53;21915;-67
2021/03/13 05:40:16;;;;;;;6.32;1.40;;;11.50;55.20;;;;;;2340764;53;21556;-67
2021/03/13 05:43:28;;;;;;;3.15;0.80;;;11.50;55.10;;;;;;2316278;55;21562;-66
2021/03/13 05:45:54;;;;;;;5.37;0.95;;;11.50;54.80;;;;;;2341466;54;20931;-66
2021/03/13 05:48:20;;;;;;;5.07;0.90;;;11.60;54.80;;;;;;2341010;54;20953;-67
2021/03/13 05:51:05;;;;;;;5.87;1.00;;;11.60;54.80;;;;;;2337085;54;21551;-67
2021/03/13 05:53:31;;;;;;;4.47;1.10;;;11.60;54.20;;;;;;2344988;53;21577;-66
2021/03/13 05:55:58;;;;;;;4.53;1.50;;;11.60;54.60;;;;;;2335961;53;20963;-66
2021/03/13 05:58:25;;;;;;;4.05;0.95;;;11.60;54.20;;;;;;2345005;54;21359;-66
2021/03/13 06:00:51;;;;;;;3.87;0.80;;;11.60;53.70;;;;;;2339412;53;20959;-66
2021/03/13 06:03:18;;;;;;;6.82;1.87;;;11.60;54.20;;;;;;2333455;53;20935;-67
2021/03/13 06:05:45;;;;;;;3.47;1.23;;;11.60;54.00;;;;;;2587824;52;20987;-67
2021/03/13 06:08:15;;;;;;;6.68;1.08;;;11.60;54.20;;;;;;2341177;54;21425;-66
2021/03/13 06:10:43;;;;;;;6.10;1.10;;;11.60;54.00;;;;;;2341692;54;20935;-66
2021/03/13 06:13:10;;;;;;;2.97;0.80;;;11.60;53.90;;;;;;2583066;52;20976;-66
2021/03/13 06:15:37;;;;;;;6.05;1.55;;;11.60;54.20;;;;;;2340341;53;21032;-66
2021/03/13 06:18:04;;;;;;;5.32;1.25;;;11.60;54.20;;;;;;2342185;53;21060;-66
2021/03/13 06:20:38;;;;;;;4.32;0.80;;;11.60;54.20;;;;;;2341380;54;21433;-66
2021/03/13 06:23:15;;;;;;;5.47;0.95;;;11.60;54.20;;;;;;2339044;54;20991;-67
2021/03/13 06:25:42;;;;;;;4.10;0.82;;;11.60;53.90;;;;;;2341703;54;21478;-66
2021/03/13 06:28:19;;;;;;;4.47;0.62;;;11.60;54.00;;;;;;2587692;52;21022;-66
2021/03/13 06:30:47;;;;;;;4.70;0.98;;;11.60;53.90;;;;;;2344380;53;20986;-67
2021/03/13 06:34:35;;;;;;;4.30;1.10;;;11.60;53.70;;;;;;2344602;53;21085;-66
2021/03/13 06:37:23;;;;;;;6.32;1.00;;;11.70;53.60;;;;;;2340669;53;21527;-66
2021/03/13 06:39:50;;;;;;;5.25;0.98;;;11.70;53.20;;;;;;2316594;55;20961;-67
2021/03/13 06:42:26;;;;;;;4.87;1.00;;;11.70;53.50;;;;;;2344624;53;21480;-66
2021/03/13 06:45:04;;;;;;;5.43;1.33;;;11.70;53.20;;;;;;2332488;54;21008;-66
2021/03/13 06:47:37;;;;;;;6.97;0.95;;;11.70;52.80;;;;;;2338064;54;21060;-66
2021/03/13 06:50:11;;;;;;;2.92;0.70;;;11.70;52.70;;;;;;2338571;53;21016;-66
2021/03/13 06:52:38;;;;;;;4.22;1.00;;;11.70;52.70;;;;;;2338367;53;21042;-66
2021/03/13 06:55:04;;;;;;;2.37;0.60;;;11.80;52.60;;;;;;2341740;53;21490;-65
2021/03/13 06:57:33;;;;;;;4.90;1.12;;;11.80;52.70;;;;;;2582490;52;20968;-66
2021/03/13 07:00:01;;;;;;;2.28;0.60;;;11.80;52.30;;;;;;2583550;52;20957;-66
2021/03/13 07:02:28;;;;;;;2.55;0.60;;;11.80;52.30;;;;;;2343414;53;21688;-66
2021/03/13 07:05:09;;;;;;;2.47;0.60;;;11.80;52.50;;;;;;2572633;52;20960;-66
2021/03/13 07:07:36;;;;;;;3.53;0.85;;;11.90;52.50;;;;;;2340646;54;20975;-66
2021/03/13 07:10:06;;;;;;;3.22;0.80;;;11.90;52.50;;;;;;2585455;52;21473;-66
2021/03/13 07:12:40;;;;;;;4.37;1.08;;;11.90;51.90;;;;;;2340746;53;20992;-66
2021/03/13 07:15:26;;;;;;;3.65;0.75;;;12.00;52.00;;;;;;2344813;53;21370;-66
2021/03/13 07:17:59;;;;;;;3.37;0.52;;;12.00;51.90;;;;;;2339475;53;21330;-66
2021/03/13 07:20:32;;;;;;;3.17;0.90;;;12.00;51.90;;;;;;2349507;53;21062;-66
2021/03/13 07:23:00;;;;;;;2.97;0.65;;;12.00;51.80;;;;;;2340389;53;20976;-67
2021/03/13 07:25:27;;;;;;;3.67;1.00;;;12.00;51.40;;;;;;2342009;53;21440;-66
2021/03/13 07:27:59;;;;;;;2.58;0.60;;;12.00;51.50;;;;;;2587919;52;20986;-66
2021/03/13 07:30:29;;;;;;;3.08;1.02;;;12.00;51.60;;;;;;2335380;53;21388;-67
2021/03/13 07:33:11;;;;;;;4.50;0.62;;;12.10;51.70;;;;;;2340869;54;21354;-66
2021/03/13 07:35:41;;;;;;;3.50;0.93;;;12.10;51.20;;;;;;2336559;54;21056;-66
2021/03/13 07:38:11;;;;;;;5.95;0.77;;;12.10;51.20;;;;;;2344477;53;20958;-66
2021/03/13 07:40:45;;;;;;;3.90;0.60;;;12.20;51.20;;;;;;2345423;53;20932;-66
2021/03/13 07:43:15;;;;;;;5.35;0.88;;;12.20;51.10;;;;;;2587023;52;20965;-66
2021/03/13 07:45:41;;;;;;;3.67;0.70;;;12.20;51.30;;;;;;2341662;54;20988;-66
2021/03/13 07:48:12;;;;;;;4.18;0.80;;;12.30;51.40;;;;;;2341543;54;21024;-66
2021/03/13 07:51:03;;;;;;;6.12;0.75;;;12.30;50.00;;;;;;2339547;54;20960;-66
2021/03/13 07:53:55;;;;;;;5.87;0.80;;;12.40;50.50;;;;;;2331551;54;21538;-66
2021/03/13 07:56:21;;;;;;;3.25;0.70;;;12.40;49.30;;;;;;2341025;54;21015;-66
2021/03/13 07:58:47;;;;;;;2.08;0.70;;;12.40;50.20;;;;;;2345419;53;21002;-67
2021/03/13 08:01:14;;;;;;;3.20;0.60;;;12.40;50.50;;;;;;2341332;53;21043;-67
2021/03/13 08:03:58;;;;;;;2.90;0.80;;;12.50;50.40;;;;;;2580702;53;20935;-66
2021/03/13 08:06:27;;;;;;;2.10;0.73;;;12.50;49.50;;;;;;2559411;52;20927;-66
2021/03/13 08:08:54;;;;;;;2.25;0.65;;;12.50;49.70;;;;;;2315646;55;21040;-66
2021/03/13 08:12:09;;;;;;;2.17;0.52;;;12.50;49.50;;;;;;2587630;52;21443;-65
2021/03/13 08:14:36;;;;;;;2.05;0.60;;;12.50;49.40;;;;;;2347391;53;20946;-66
2021/03/13 08:17:15;;;;;;;1.35;0.50;;;12.50;49.30;;;;;;2587974;52;20974;-66
2021/03/13 08:19:44;;;;;;;2.35;0.65;;;12.60;49.10;;;;;;2568350;52;21853;-66
2021/03/13 08:22:23;;;;;;;2.95;0.75;;;12.50;49.20;;;;;;2343161;54;20971;-66
2021/03/13 08:25:00;;;;;;;4.28;0.80;;;12.60;49.20;;;;;;2339195;53;21141;-65
2021/03/13 08:27:42;;;;;;;3.58;0.80;;;12.60;49.00;;;;;;2561333;53;21036;-67
2021/03/13 08:30:28;;;;;;;1.90;0.70;;;12.60;48.70;;;;;;2588805;52;21047;-66
2021/03/13 08:33:13;;;;;;;3.75;0.80;;;12.70;48.20;;;;;;2346556;54;20980;-66
2021/03/13 08:35:45;;;;;;;4.37;1.08;;;12.70;48.60;;;;;;2339585;53;21434;-66
2021/03/13 08:38:12;;;;;;;3.10;0.80;;;12.80;48.70;;;;;;2346090;53;20951;-66
2021/03/13 08:40:46;;;;;;;5.30;0.93;;;12.70;48.60;;;;;;2335223;53;20963;-66
2021/03/13 08:43:32;;;;;;;4.68;0.90;;;12.70;48.70;;;;;;2588863;52;21071;-66
2021/03/13 08:45:59;;;;;;;1.35;0.55;;;12.70;48.60;;;;;;2325602;55;21086;-66
2021/03/13 08:48:54;;;;;;;2.05;0.62;;;12.70;48.80;;;;;;2586814;52;20993;-66
2021/03/13 08:51:27;;;;;;;2.50;0.50;;;12.80;48.40;;;;;;2349452;53;20956;-66
2021/03/13 08:53:54;;;;;;;3.15;0.60;;;12.80;48.90;;;;;;2587541;52;20915;-65
2021/03/13 08:56:44;;;;;;;2.40;0.50;;;12.80;47.70;;;;;;2549521;53;21003;-66
2021/03/13 08:59:20;;;;;;;5.12;1.10;;;12.90;48.00;;;;;;2590850;52;21825;-66
2021/03/13 09:02:21;;;;;;;1.55;0.50;;;12.90;47.50;;;;;;2337782;53;21460;-67
2021/03/13 09:04:50;;;;;;;1.73;0.40;;;12.90;47.80;;;;;;2349045;53;20958;-67
2021/03/13 09:07:28;;;;;;;2.37;0.70;;;12.90;48.50;;;;;;2580388;52;21027;-66
2021/03/13 09:09:58;;;;;;;4.87;0.98;;;13.00;47.80;;;;;;2329450;54;21952;-68
2021/03/13 09:12:38;;;;;;;1.48;0.40;;;13.00;47.60;;;;;;2338500;54;20968;-66
2021/03/13 09:15:07;;;;;;;2.80;0.60;;;13.00;47.80;;;;;;2561479;52;20959;-67
2021/03/13 09:17:55;;;;;;;3.37;0.77;;;13.00;47.50;;;;;;2586733;52;20985;-66
2021/03/13 09:20:24;;;;;;;2.78;0.65;;;13.10;47.70;;;;;;2586358;52;20981;-66
2021/03/13 09:22:51;;;;;;;2.25;0.60;;;13.10;47.90;;;;;;2343098;53;20990;-66
2021/03/13 09:25:25;;;;;;;1.83;0.60;;;13.10;48.20;;;;;;2325332;53;21659;-66
2021/03/13 09:27:52;;;;;;;2.15;0.52;;;13.20;47.60;;;;;;2348097;53;20972;-66
2021/03/13 09:30:45;;;;;;;1.75;0.60;;;13.20;47.80;;;;;;2578664;52;20960;-66
2021/03/13 09:33:21;;;;;;;2.58;0.73;;;13.30;47.50;;;;;;2344027;54;21461;-66
2021/03/13 09:36:09;;;;;;;3.83;0.85;;;13.30;47.30;;;;;;2589577;52;21708;-66
2021/03/13 09:38:59;;;;;;;2.53;0.80;;;13.30;47.20;;;;;;2561811;53;21485;-66
2021/03/13 09:41:40;;;;;;;2.30;0.60;;;13.40;47.70;;;;;;2584170;52;20969;-66
2021/03/13 09:44:35;;;;;;;3.20;0.68;;;13.40;47.20;;;;;;2331096;54;21040;-65
2021/03/13 09:47:12;;;;;;;1.65;0.60;;;13.40;47.20;;;;;;2329212;53;20937;-66
2021/03/13 09:50:01;;;;;;;3.65;0.68;;;13.40;47.40;;;;;;2586121;52;20949;-66
2021/03/13 09:52:35;;;;;;;3.60;0.80;;;13.40;47.20;;;;;;2588924;52;21054;-66
2021/03/13 09:55:16;;;;;;;2.50;0.77;;;13.50;46.70;;;;;;2584513;52;21020;-66
2021/03/13 09:58:07;;;;;;;3.42;0.65;;;13.50;46.70;;;;;;2589142;52;21023;-67
2021/03/13 10:00:45;;;;;;;3.67;0.82;;;13.50;47.00;;;;;;2343070;53;21008;-66
2021/03/13 10:03:13;;;;;;;2.65;0.85;;;13.50;47.10;;;;;;2588477;52;20979;-66
2021/03/13 10:05:43;;;;;;;3.00;0.82;;;13.50;47.00;;;;;;2347256;53;21297;-67
2021/03/13 10:08:13;;;;;;;2.85;0.77;;;13.50;47.20;;;;;;2560936;53;21445;-66
2021/03/13 10:10:55;;;;;;;5.53;0.77;;;13.50;46.70;;;;;;2347230;54;20948;-66
2021/03/13 10:13:24;;;;;;;4.05;0.90;;;13.50;46.60;;;;;;2587983;52;21000;-67
2021/03/13 10:16:15;;;;;;;3.55;0.70;;;13.50;46.40;;;;;;2345655;53;21041;-66
2021/03/13 10:18:49;;;;;;;2.95;0.70;;;13.50;45.70;;;;;;2576724;52;21004;-66
2021/03/13 10:21:15;;;;;;;3.10;1.00;;;13.50;46.50;;;;;;2343028;54;20943;-67
2021/03/13 10:23:41;;;;;;;14.65;1.75;;;13.50;46.40;;;;;;2582669;53;21075;-66
2021/03/13 10:26:17;;;;;;;4.75;0.93;;;13.60;45.80;;;;;;2556630;52;21552;-66
2021/03/13 10:28:47;;;;;;;3.40;0.90;;;13.60;46.00;;;;;;2555279;53;21010;-66
2021/03/13 10:31:26;;;;;;;3.40;0.65;;;13.60;46.10;;;;;;2324422;54;20932;-66
2021/03/13 10:33:54;;;;;;;2.10;0.68;;;13.60;45.30;;;;;;2344223;53;21007;-65
2021/03/13 10:36:42;;;;;;;3.03;0.70;;;13.60;45.70;;;;;;2573807;52;21028;-66
2021/03/13 10:39:09;;;;;;;2.50;0.60;;;13.60;45.30;;;;;;2588213;52;20916;-66
2021/03/13 10:44:54;;;;;;;2.92;0.90;;;13.70;45.30;;;;;;2346443;53;20939;-66
2021/03/13 10:47:28;;;;;;;3.72;0.77;;;13.70;44.50;;;;;;2590504;52;20917;-66
2021/03/13 10:49:58;;;;;;;2.20;0.80;;;13.70;44.80;;;;;;2582874;52;21109;-65
2021/03/13 10:52:28;;;;;;;3.22;0.85;;;13.70;44.80;;;;;;2340190;53;20917;-66
2021/03/13 10:54:56;;;;;;;5.37;0.80;;;13.80;45.30;;;;;;2345371;54;20985;-66
2021/03/13 10:57:35;;;;;;;2.25;0.60;;;13.80;44.20;;;;;;2342868;53;20996;-66
2021/03/13 11:00:09;;;;;;;2.47;0.80;;;13.80;44.60;;;;;;2585321;52;20959;-66
2021/03/13 11:02:35;;;;;;;1.52;0.43;;;13.90;45.10;;;;;;2589345;52;20964;-66
2021/03/13 11:05:11;;;;;;;2.47;0.95;;;13.90;45.00;;;;;;2342435;53;21915;-66
2021/03/13 11:07:37;;;;;;;3.87;0.60;;;14.00;44.80;;;;;;2589551;52;20991;-67
2021/03/13 11:10:08;;;;;;;3.03;0.55;;;14.00;45.30;;;;;;2342735;54;21024;-66
2021/03/13 11:12:34;;;;;;;2.90;0.50;;;14.10;44.90;;;;;;2349101;53;21386;-66
2021/03/13 11:15:01;;;;;;;2.12;0.65;;;14.10;44.20;;;;;;2567458;53;21057;-66
2021/03/13 11:17:29;;;;;;;3.58;0.88;;;14.10;45.10;;;;;;2335498;53;20959;-66
2021/03/13 11:19:55;;;;;;;2.42;0.50;;;14.10;44.50;;;;;;2346221;53;21530;-66
2021/03/13 11:22:22;;;;;;;2.25;0.52;;;14.20;44.80;;;;;;2346551;53;20924;-67
2021/03/13 11:24:49;;;;;;;1.67;0.50;;;14.20;44.60;;;;;;2341433;53;21694;-66
2021/03/13 11:27:15;;;;;;;1.87;0.40;;;14.30;45.10;;;;;;2324228;53;20984;-67
2021/03/13 11:29:42;;;;;;;2.20;0.60;;;14.30;45.00;;;;;;2343416;54;20905;-66
2021/03/13 11:32:09;;;;;;;2.37;0.70;;;14.40;44.10;;;;;;2351225;53;20947;-66
2021/03/13 11:34:37;;;;;;;2.72;0.60;;;14.40;45.00;;;;;;2336499;53;21012;-66
2021/03/13 11:37:03;;;;;;;2.37;0.75;;;14.40;45.30;;;;;;2346498;53;20955;-66
2021/03/13 11:39:33;;;;;;;1.40;0.40;;;14.40;44.20;;;;;;2342743;53;21449;-66
2021/03/13 11:42:01;;;;;;;1.42;0.50;;;14.50;44.60;;;;;;2588767;52;21599;-66
2021/03/13 11:44:28;;;;;;;1.80;0.50;;;14.50;45.10;;;;;;2589312;52;21509;-66
2021/03/13 11:46:54;;;;;;;1.80;0.50;;;14.50;44.40;;;;;;2342878;54;21008;-66
2021/03/13 11:49:21;;;;;;;1.65;0.50;;;14.50;44.50;;;;;;2589075;52;21315;-66
2021/03/13 11:51:48;;;;;;;2.45;0.60;;;14.60;45.30;;;;;;2324279;54;21001;-67
2021/03/13 11:54:17;;;;;;;2.95;0.60;;;14.60;45.30;;;;;;2321620;55;20917;-66
2021/03/13 11:56:43;;;;;;;4.00;0.70;;;14.60;44.90;;;;;;2343496;53;20968;-66
2021/03/13 11:59:09;;;;;;;2.42;0.60;;;14.70;44.70;;;;;;2346543;53;20931;-66
2021/03/13 12:01:36;;;;;;;2.75;0.65;;;14.70;45.00;;;;;;2589339;52;20948;-66
2021/03/13 12:04:04;;;;;;;0.90;0.40;;;14.70;44.90;;;;;;2345654;53;20994;-66
2021/03/13 12:06:30;;;;;;;1.30;0.40;;;14.70;44.70;;;;;;2345025;53;21011;-67
2021/03/13 12:08:59;;;;;;;1.95;0.55;;;14.70;44.90;;;;;;2575100;52;21498;-66
2021/03/13 12:11:25;;;;;;;1.60;0.40;;;14.70;45.30;;;;;;2588437;52;20952;-66
2021/03/13 12:13:55;;;;;;;3.85;0.60;;;14.70;45.70;;;;;;2587141;52;20944;-74
2021/03/13 12:16:21;;;;;;;1.37;0.45;;;14.80;46.00;;;;;;2346798;53;21008;-70
2021/03/13 12:18:51;;;;;;;1.60;0.50;;;14.70;45.70;;;;;;2342486;54;21294;-72
2021/03/13 12:21:17;;;;;;;1.95;0.50;;;14.70;45.70;;;;;;2587990;52;20931;-67
2021/03/13 12:23:44;;;;;;;2.05;0.50;;;14.70;46.10;;;;;;2345213;53;20964;-66
2021/03/13 12:26:10;;;;;;;2.20;0.50;;;14.70;46.00;;;;;;2345866;53;21024;-66
2021/03/13 12:28:37;;;;;;;1.95;0.57;;;14.70;45.90;;;;;;2583227;52;20967;-67
2021/03/13 12:31:09;;;;;;;2.10;0.40;;;14.70;45.90;;;;;;2589195;52;21035;-66
2021/03/13 12:33:35;;;;;;;1.37;0.50;;;14.70;46.70;;;;;;2347118;53;20951;-71
2021/03/13 12:36:02;;;;;;;2.42;0.40;;;14.70;46.60;;;;;;2345983;53;20963;-66
2021/03/13 12:38:28;;;;;;;1.10;0.32;;;14.70;46.80;;;;;;2588720;52;20960;-67
2021/03/13 12:41:04;;;;;;;1.30;0.40;;;14.70;47.10;;;;;;2345973;53;20967;-67
2021/03/13 12:43:30;;;;;;;2.10;0.73;;;14.80;47.30;;;;;;2342602;54;21247;-67
2021/03/13 12:45:56;;;;;;;2.30;0.70;;;14.80;47.80;;;;;;2343131;54;21043;-66
2021/03/13 12:48:30;;;;;;;1.20;0.43;;;14.80;48.10;;;;;;2342297;54;20924;-67
2021/03/13 12:50:57;;;;;;;1.35;0.40;;;14.80;48.00;;;;;;2562281;53;20989;-67
2021/03/13 12:53:23;;;;;;;2.87;0.80;;;14.60;47.50;;;;;;2339853;53;21019;-67
2021/03/13 12:55:50;;;;;;;4.55;0.95;;;14.40;47.20;;;;;;2342664;53;21256;-67
2021/03/13 12:58:20;;;;;;;3.80;1.30;;;14.10;47.10;;;;;;2341781;54;21691;-67
2021/03/13 13:00:47;;;;;;;3.62;1.40;;;13.80;47.10;;;;;;2347931;53;20977;-68
2021/03/13 13:03:19;;;;;;;4.22;2.20;;;13.40;47.30;;;;;;2345056;53;21003;-67
2021/03/13 13:05:46;;;;;;;3.80;1.30;;;13.10;47.70;;;;;;2346621;53;20931;-67
2021/03/13 13:08:12;;;;;;;3.75;1.30;;;12.80;48.00;;;;;;2343121;53;21056;-67
2021/03/13 13:10:38;;;;;;;2.25;0.75;;;12.50;48.40;;;;;;2349255;53;21020;-67
2021/03/13 13:13:05;;;;;;;2.58;1.42;;;12.30;48.90;;;;;;2335161;53;20999;-68
2021/03/13 13:15:31;;;;;;;1.95;0.80;;;12.10;49.30;;;;;;2353094;53;20940;-68
2021/03/13 13:18:00;;;;;;;2.08;1.00;;;11.90;49.60;;;;;;2337285;53;21375;-67